x

Fort Irwin/barstow, Bicycle Lake Army Airfield (74611) Weather Station

3:55am - Fri 27th May 2016 All times are PDT. -7 hours from GMT.

  • Wind
    20mph
  • Air Temp 63°f
  • Sea Pressure 1012.2mb
  • Fort Irwin/barstow, Bicycle Lake Army Airfield
  • Fort Irwin/barstow, Bicycle Lake Army Airfield

More Historic Weather Station data

Upgrade to MSW Pro to gain access to the past 30 days of data for over 8000 Wavebouys and Weather Stations around the globe.

Join Pro

Comparision Forecast

View Surf forecast
   
Fri 05/27 3:55am 20
mph
1012.2mb 63f
2:55am 14
mph
1012.2mb 64f
1:55am 15 18 mph 1012.5mb 65f
12:55am 14 23 mph 1012.5mb 66f
Thu 05/26 11:55pm 10
mph
1012.5mb 68f
10:55pm 16 24 mph 1012.5mb 70f
9:55pm 22 31 mph 1012.5mb 72f
8:55pm 10 18 mph 1011.9mb 75f
7:55pm 10
mph
1011.5mb 76f
6:55pm 8
mph
1011.5mb 78f
5:55pm 6
mph
1011.5mb 79f
4:55pm 8
mph
1011.9mb 81f
3:55pm 9 16 mph 1012.5mb 80f
2:55pm 13 18 mph 1013.2mb 77f
1:55pm 10 23 mph 1014.2mb 80f
12:55pm 14 25 mph 1014.2mb 79f
11:55am 7 17 mph 1014.9mb 77f
10:55am 10 21 mph 1015.2mb 73f
9:55am 10 18 mph 1015.2mb 72f
8:55am 13 22 mph 1015.6mb 69f
7:55am 2
mph
1015.6mb 64f
6:55am 8
mph
1014.9mb 60f
5:55am 16 24 mph 1014.2mb 57f
4:55am 5 17 mph 1013.9mb 58f
3:55am 7 16 mph 1013.9mb 59f
2:55am 13 22 mph 1013.9mb 59f
1:55am 16 25 mph 1013.9mb 59f
12:55am 20
mph
1013.9mb 60f
Wed 05/25 11:55pm 20 27 mph 1014.2mb 62f
10:55pm 21 25 mph 1013.9mb 63f
9:55pm 23 29 mph 1013.5mb 65f
8:55pm 20
mph
1013.5mb 66f
7:55pm 22 29 mph 1012.5mb 67f
6:55pm 28 36 mph 1012.5mb 69f
5:55pm 27 37 mph 1012.5mb 70f
4:55pm 8
mph
1011.9mb 81f
3:55pm 21 30 mph 1012.5mb 76f
1:55pm 2
mph
1013.9mb 73f
12:55pm 2 12 mph 1014.6mb 69f
11:55am 2
mph
1014.9mb 69f
10:55am 6
mph
1015.2mb 66f
9:55am 3 14 mph 1015.2mb 64f
8:55am 12 18 mph 1015.2mb 59f
7:55am 12
mph
1014.9mb 55f
6:55am 12 23 mph 1014.9mb 53f
5:55am 8
mph
1014.6mb 52f
4:55am 12 22 mph 1013.9mb 52f
3:55am 17 24 mph 1013.9mb 53f
2:55am 12 20 mph 1013.5mb 54f
1:55am 17 27 mph 1013.5mb 55f
12:55am 12 20 mph 1013.9mb 56f
Tue 05/24 11:55pm 14 27 mph 1013.9mb 57f
10:55pm 14 31 mph 1014.2mb 59f
9:55pm 20 31 mph 1013.9mb 61f
8:55pm 21 29 mph 1012.9mb 62f
7:55pm 23 31 mph 1012.2mb 65f
6:55pm 23 38 mph 1011.5mb 68f
5:55pm 28 37 mph 1011.5mb 69f
4:55pm 21 31 mph 1012.5mb 71f
3:55pm 24 31 mph 1011.5mb 71f
2:55pm 25 35 mph 1011.5mb 71f
1:55pm 21 29 mph 1011.9mb 70f
12:55pm 12 27 mph 1012.2mb 69f
11:55am 17 30 mph 1011.9mb 67f
10:55am 23 31 mph 1011.5mb 64f
9:55am 27 33 mph 1011.2mb 61f
8:55am 23 36 mph 1010.8mb 58f
7:55am 20 36 mph 1010.5mb 56f
6:55am 23 36 mph 1009.8mb 53f
5:55am 23 37 mph 1008.8mb 53f
4:55am 22 29 mph 1009.1mb 53f
3:55am 25 32 mph 1008.8mb 54f
2:55am 15 29 mph 1009.1mb 55f
1:55am 24 35 mph 1009.1mb 56f
12:55am 21 32 mph 1009.1mb 57f
Mon 05/23 11:55pm 25 33 mph 1009.1mb 59f
10:55pm 27 38 mph 1008.8mb 60f
9:55pm 31 40 mph 1008.5mb 61f
8:55pm 21 35 mph 1007.5mb 63f
7:55pm 23 32 mph 1007.1mb 66f
6:55pm 28 35 mph 1006.8mb 70f
5:55pm 27 35 mph 1006.8mb 73f
4:55pm 18 35 mph 1007.5mb 74f
3:55pm 18 31 mph 1007.8mb 75f
2:55pm 16 29 mph 1008.5mb 73f
1:55pm 20 27 mph 1008.8mb 74f
12:55pm 13 22 mph 1009.8mb 71f
11:55am 13 17 mph 1010.5mb 68f